createdAt,value
2022-10-02T00:02:26.936Z,4.00
2022-10-02T00:05:02.912Z,4.50
2022-10-02T00:07:40.764Z,4.30
2022-10-02T00:10:19.028Z,4.60
2022-10-02T00:12:55.701Z,5.10
2022-10-02T00:15:31.048Z,4.50
2022-10-02T00:18:08.849Z,4.20
2022-10-02T00:20:46.594Z,4.40
2022-10-02T00:23:27.319Z,4.70
2022-10-02T00:26:04.486Z,4.40
2022-10-02T00:28:46.409Z,4.70
2022-10-02T00:31:30.329Z,4.80
2022-10-02T00:34:20.051Z,4.90
2022-10-02T00:37:02.809Z,4.30
2022-10-02T00:39:45.256Z,5.10
2022-10-02T00:42:39.898Z,5.40
2022-10-02T00:45:37.971Z,5.00
2022-10-02T00:48:23.830Z,4.80
2022-10-02T00:51:05.225Z,5.50
2022-10-02T00:53:48.513Z,5.30
2022-10-02T00:56:32.403Z,5.30
2022-10-02T00:59:20.430Z,5.00
2022-10-02T01:01:58.949Z,5.30
2022-10-02T01:04:34.632Z,5.10
2022-10-02T01:07:09.079Z,4.80
2022-10-02T01:09:42.253Z,4.70
2022-10-02T01:12:14.526Z,5.60
2022-10-02T01:14:46.123Z,4.90
2022-10-02T01:17:26.062Z,4.90
2022-10-02T01:19:58.350Z,5.40
2022-10-02T01:22:35.691Z,5.30
2022-10-02T01:25:09.535Z,5.10
2022-10-02T01:27:41.316Z,5.40
2022-10-02T01:30:17.168Z,5.60
2022-10-02T01:32:59.311Z,5.20
2022-10-02T01:35:34.190Z,5.40
2022-10-02T01:38:08.566Z,4.30
2022-10-02T01:40:41.818Z,5.60
2022-10-02T01:43:16.907Z,5.20
2022-10-02T01:46:07.620Z,5.70
2022-10-02T01:48:50.933Z,5.30
2022-10-02T01:51:44.934Z,5.50
2022-10-02T01:54:26.338Z,5.40
2022-10-02T01:57:10.357Z,5.50
2022-10-02T01:59:52.535Z,5.30
2022-10-02T02:02:31.575Z,5.20
2022-10-02T02:05:09.700Z,5.60
2022-10-02T02:07:48.113Z,5.10
2022-10-02T02:10:28.133Z,5.10
2022-10-02T02:13:05.539Z,5.50
2022-10-02T02:15:42.373Z,5.60
2022-10-02T02:18:22.102Z,5.30
2022-10-02T02:20:58.741Z,5.40
2022-10-02T02:23:35.115Z,5.20
2022-10-02T02:26:11.671Z,5.50
2022-10-02T02:28:47.845Z,5.30
2022-10-02T02:31:23.117Z,5.20
2022-10-02T02:33:59.712Z,5.50
2022-10-02T02:36:38.194Z,5.80
2022-10-02T02:39:14.890Z,5.40
2022-10-02T02:41:52.184Z,5.90
2022-10-02T02:44:28.647Z,5.40
2022-10-02T02:47:06.972Z,5.90
2022-10-02T02:49:50.970Z,6.10
2022-10-02T02:52:28.150Z,5.90
2022-10-02T02:55:06.631Z,5.80
2022-10-02T02:57:45.356Z,5.90
2022-10-02T03:00:20.032Z,6.10
2022-10-02T03:05:25.115Z,6.50
2022-10-02T03:07:59.698Z,6.20
2022-10-02T03:10:41.424Z,7.70
2022-10-02T03:13:26.117Z,7.30
2022-10-02T03:16:13.834Z,6.90
2022-10-02T03:19:06.256Z,7.70
2022-10-02T03:21:46.945Z,6.70
2022-10-02T03:24:26.048Z,7.00
2022-10-02T03:27:02.757Z,7.70
2022-10-02T03:29:38.590Z,7.10
2022-10-02T03:32:13.256Z,7.50
2022-10-02T03:37:26.693Z,7.10
2022-10-02T03:40:11.207Z,6.70
2022-10-02T03:42:43.843Z,7.40
2022-10-02T03:45:32.807Z,6.40
2022-10-02T03:48:07.239Z,6.50
2022-10-02T03:50:38.549Z,6.20
2022-10-02T03:53:15.453Z,6.30
2022-10-02T03:55:54.357Z,5.90
2022-10-02T03:58:27.315Z,6.20
2022-10-02T04:01:04.610Z,6.30
2022-10-02T04:03:40.341Z,6.50
2022-10-02T04:06:17.621Z,6.70
2022-10-02T04:08:54.554Z,7.20
2022-10-02T04:11:29.605Z,6.70
2022-10-02T04:14:08.870Z,7.80
2022-10-02T04:16:43.945Z,7.10
2022-10-02T04:19:22.978Z,6.40
2022-10-02T04:21:59.879Z,6.80
2022-10-02T04:24:35.248Z,6.40
2022-10-02T04:27:15.724Z,6.40
2022-10-02T04:29:53.459Z,6.50
2022-10-02T04:32:28.537Z,6.70
2022-10-02T04:35:00.854Z,6.30
2022-10-02T04:37:47.851Z,6.30
2022-10-02T04:40:31.493Z,5.80
2022-10-02T04:43:14.772Z,6.30
2022-10-02T04:46:08.440Z,5.40
2022-10-02T04:49:05.684Z,5.20
2022-10-02T04:51:50.384Z,5.10
2022-10-02T04:54:48.802Z,5.70
2022-10-02T04:57:32.970Z,4.60
2022-10-02T05:00:12.887Z,5.50
2022-10-02T05:03:04.382Z,4.70
2022-10-02T05:05:49.850Z,4.50
2022-10-02T05:08:40.472Z,5.00
2022-10-02T05:11:31.900Z,4.60
2022-10-02T05:14:28.996Z,5.20
2022-10-02T05:17:15.968Z,4.60
2022-10-02T05:19:58.886Z,5.20
2022-10-02T05:22:53.754Z,4.10
2022-10-02T05:25:38.249Z,4.40
2022-10-02T05:28:31.094Z,4.50
2022-10-02T05:31:13.940Z,4.70
2022-10-02T05:33:58.611Z,4.50
2022-10-02T05:36:43.423Z,4.20
2022-10-02T05:39:20.553Z,4.10
2022-10-02T05:42:02.659Z,4.40
2022-10-02T05:44:39.960Z,3.90
2022-10-02T05:47:18.344Z,4.10
2022-10-02T05:49:53.728Z,3.70
2022-10-02T05:52:29.639Z,3.30
2022-10-02T05:55:05.556Z,3.60
2022-10-02T05:57:41.756Z,3.40
2022-10-02T06:00:24.991Z,3.70
2022-10-02T06:03:07.609Z,3.40
2022-10-02T06:05:45.808Z,3.30
2022-10-02T06:08:21.472Z,3.60
2022-10-02T06:10:58.011Z,2.80
2022-10-02T06:13:36.039Z,3.40
2022-10-02T06:16:14.481Z,3.10
2022-10-02T06:18:50.420Z,2.20
2022-10-02T06:21:31.892Z,3.00
2022-10-02T06:24:06.661Z,2.60
2022-10-02T06:26:45.557Z,2.30
2022-10-02T06:29:27.076Z,2.50
2022-10-02T06:32:15.024Z,2.50
2022-10-02T06:34:48.224Z,2.50
2022-10-02T06:37:41.279Z,2.70
2022-10-02T06:40:31.458Z,2.50
2022-10-02T06:43:10.990Z,2.20
2022-10-02T06:45:59.147Z,2.40
2022-10-02T06:48:41.335Z,2.00
2022-10-02T06:51:22.100Z,2.30
2022-10-02T06:54:19.457Z,2.50
2022-10-02T06:57:21.995Z,2.40
2022-10-02T07:00:09.883Z,2.40
2022-10-02T07:03:02.095Z,2.30
2022-10-02T07:06:04.069Z,2.40
2022-10-02T07:08:51.497Z,1.70
2022-10-02T07:11:29.550Z,1.70
2022-10-02T07:14:17.817Z,2.00
2022-10-02T07:17:13.472Z,2.30
2022-10-02T07:20:14.303Z,1.80
2022-10-02T07:23:02.655Z,2.00
2022-10-02T07:25:45.531Z,2.20
2022-10-02T07:28:27.508Z,2.40
2022-10-02T07:31:04.030Z,1.90
2022-10-02T07:33:52.112Z,1.90
2022-10-02T07:36:38.193Z,2.00
2022-10-02T07:39:18.742Z,2.10
2022-10-02T07:42:11.508Z,2.00
2022-10-02T07:45:04.499Z,1.80
2022-10-02T07:47:54.157Z,1.90
2022-10-02T07:50:32.779Z,1.50
2022-10-02T07:53:13.710Z,1.70
2022-10-02T07:55:50.184Z,1.50
2022-10-02T07:58:31.752Z,1.40
2022-10-02T08:01:06.146Z,1.70
2022-10-02T08:03:43.051Z,1.40
2022-10-02T08:06:15.050Z,1.50
2022-10-02T08:08:53.130Z,1.70
2022-10-02T08:11:30.586Z,1.90
2022-10-02T08:14:10.313Z,2.90
2022-10-02T08:16:48.010Z,1.40
2022-10-02T08:19:22.017Z,1.60
2022-10-02T08:21:59.073Z,1.40
2022-10-02T08:24:38.376Z,1.60
2022-10-02T08:27:15.753Z,1.30
2022-10-02T08:29:52.201Z,1.70
2022-10-02T08:32:33.953Z,1.60
2022-10-02T08:35:14.823Z,1.30
2022-10-02T08:37:59.232Z,2.00
2022-10-02T08:41:02.345Z,1.90
2022-10-02T08:44:06.521Z,1.60
2022-10-02T08:47:09.579Z,1.50
2022-10-02T08:50:16.359Z,1.40
2022-10-02T08:53:34.856Z,1.70
2022-10-02T08:56:27.974Z,1.90
2022-10-02T08:59:38.928Z,1.70
2022-10-02T09:02:55.322Z,1.80
2022-10-02T09:05:56.947Z,2.00
2022-10-02T09:08:58.646Z,1.80
2022-10-02T09:12:20.793Z,2.00
2022-10-02T09:15:00.449Z,3.00
2022-10-02T09:17:49.731Z,2.50
2022-10-02T09:20:56.909Z,2.20
2022-10-02T09:24:07.398Z,1.90
2022-10-02T09:26:58.747Z,2.30
2022-10-02T09:30:05.135Z,2.30
2022-10-02T09:33:06.777Z,2.40
2022-10-02T09:36:10.864Z,2.20
2022-10-02T09:39:12.194Z,2.10
2022-10-02T09:42:27.800Z,2.50
2022-10-02T09:45:43.393Z,1.80
2022-10-02T09:48:50.293Z,1.70
2022-10-02T09:51:51.129Z,1.60
2022-10-02T09:54:53.604Z,1.60
2022-10-02T09:57:52.911Z,2.00
2022-10-02T10:00:37.910Z,2.00
2022-10-02T10:06:39.403Z,1.80
2022-10-02T10:09:46.447Z,2.20
2022-10-02T10:12:56.543Z,1.80
2022-10-02T10:16:02.516Z,2.20
2022-10-02T10:19:04.862Z,2.70
2022-10-02T10:22:09.395Z,2.30
2022-10-02T10:25:03.641Z,1.70
2022-10-02T10:28:06.155Z,2.00
2022-10-02T10:31:02.566Z,1.90
2022-10-02T10:34:12.066Z,1.70
2022-10-02T10:37:15.317Z,1.60
2022-10-02T10:40:25.236Z,1.70
2022-10-02T10:43:20.543Z,1.40
2022-10-02T10:48:56.602Z,1.30
2022-10-02T10:51:38.039Z,1.60
2022-10-02T10:54:54.646Z,1.30
2022-10-02T10:58:00.242Z,1.20
2022-10-02T11:00:39.960Z,1.70
2022-10-02T11:03:58.768Z,1.40
2022-10-02T11:06:51.640Z,1.60
2022-10-02T11:09:55.957Z,1.60
2022-10-02T11:12:58.892Z,1.80
2022-10-02T11:15:56.676Z,1.90
2022-10-02T11:18:49.043Z,1.70
2022-10-02T11:21:40.034Z,1.80
2022-10-02T11:24:28.668Z,1.80
2022-10-02T11:27:27.194Z,1.20
2022-10-02T11:30:13.295Z,1.60
2022-10-02T11:33:27.404Z,1.50
2022-10-02T11:36:27.274Z,1.60
2022-10-02T11:39:27.049Z,2.00
2022-10-02T11:42:22.571Z,1.50
2022-10-02T11:45:17.374Z,1.50
2022-10-02T11:48:25.930Z,1.90
2022-10-02T11:51:12.591Z,1.60
2022-10-02T11:54:06.367Z,2.00
2022-10-02T11:57:02.049Z,2.10
2022-10-02T11:59:48.138Z,2.00
2022-10-02T12:02:28.067Z,1.70
2022-10-02T12:05:13.717Z,1.70
2022-10-02T12:07:56.277Z,2.00
2022-10-02T12:10:39.821Z,1.80
2022-10-02T12:13:32.299Z,1.60
2022-10-02T12:16:12.306Z,1.70
2022-10-02T12:19:05.443Z,2.80
2022-10-02T12:22:15.876Z,2.00
2022-10-02T12:25:14.120Z,1.80
2022-10-02T12:27:58.791Z,2.10
2022-10-02T12:30:36.616Z,2.20
2022-10-02T12:33:26.933Z,1.90
2022-10-02T12:36:27.720Z,2.20
2022-10-02T12:39:12.175Z,2.30
2022-10-02T12:42:11.861Z,1.90
2022-10-02T12:45:16.942Z,1.90
2022-10-02T12:48:19.701Z,2.10
2022-10-02T12:54:24.168Z,2.20
2022-10-02T12:57:39.062Z,1.90
2022-10-02T13:00:16.565Z,1.90
2022-10-02T13:03:15.378Z,2.80
2022-10-02T13:06:18.302Z,3.00
2022-10-02T13:09:05.666Z,2.60
2022-10-02T13:11:55.694Z,2.90
2022-10-02T13:14:48.089Z,2.90
2022-10-02T13:17:36.201Z,2.30
2022-10-02T13:20:21.023Z,1.90
2022-10-02T13:23:03.192Z,2.10
2022-10-02T13:25:44.562Z,2.40
2022-10-02T13:28:44.283Z,2.40
2022-10-02T13:31:25.324Z,2.30
2022-10-02T13:34:13.267Z,1.70
2022-10-02T13:37:00.792Z,1.60
2022-10-02T13:39:48.726Z,2.40
2022-10-02T13:42:34.578Z,2.10
2022-10-02T13:45:17.382Z,1.90
2022-10-02T13:47:59.179Z,2.20
2022-10-02T13:50:52.627Z,2.00
2022-10-02T13:53:50.048Z,2.90
2022-10-02T13:56:38.017Z,2.20
2022-10-02T13:59:29.913Z,2.20
2022-10-02T14:02:15.195Z,1.70
2022-10-02T14:04:56.837Z,2.10
2022-10-02T14:07:46.877Z,1.60
2022-10-02T14:10:29.888Z,1.40
2022-10-02T14:13:16.375Z,1.70
2022-10-02T14:16:07.634Z,1.40
2022-10-02T14:19:08.634Z,2.00
2022-10-02T14:21:47.186Z,1.50
2022-10-02T14:24:47.177Z,1.80
2022-10-02T14:27:45.151Z,1.40
2022-10-02T14:30:20.843Z,1.60
2022-10-02T14:33:04.854Z,1.70
2022-10-02T14:35:45.279Z,1.80
2022-10-02T14:38:45.769Z,2.00
2022-10-02T14:41:47.232Z,2.00
2022-10-02T14:44:53.323Z,1.70
2022-10-02T14:47:49.633Z,1.50
2022-10-02T14:50:40.365Z,1.80
2022-10-02T14:53:32.144Z,1.80
2022-10-02T14:56:37.262Z,1.60
2022-10-02T14:59:23.180Z,1.70
2022-10-02T15:02:09.583Z,2.10
2022-10-02T15:04:47.377Z,1.60
2022-10-02T15:07:21.982Z,1.70
2022-10-02T15:12:44.011Z,1.50
2022-10-02T15:15:22.201Z,1.40
2022-10-02T15:18:17.578Z,1.90
2022-10-02T15:23:42.775Z,1.90
2022-10-02T15:26:35.918Z,1.90
2022-10-02T15:29:21.566Z,1.80
2022-10-02T15:32:21.010Z,2.00
2022-10-02T15:35:01.175Z,2.40
2022-10-02T15:37:42.657Z,2.20
2022-10-02T15:40:29.137Z,2.20
2022-10-02T15:43:04.104Z,2.50
2022-10-02T15:45:58.921Z,2.70
2022-10-02T15:48:52.529Z,2.90
2022-10-02T15:51:42.323Z,3.70
2022-10-02T15:54:25.128Z,3.30
2022-10-02T15:57:08.733Z,3.60
2022-10-02T15:59:54.500Z,4.20
2022-10-02T16:02:53.629Z,7.20
2022-10-02T16:06:00.307Z,5.20
2022-10-02T16:09:06.623Z,5.80
2022-10-02T16:12:13.993Z,5.60
2022-10-02T16:15:01.279Z,6.10
2022-10-02T16:17:55.552Z,6.70
2022-10-02T16:20:52.172Z,5.70
2022-10-02T16:23:40.015Z,6.20
2022-10-02T16:26:25.259Z,6.50
2022-10-02T16:29:09.037Z,7.60
2022-10-02T16:31:54.745Z,8.30
2022-10-02T16:34:40.641Z,7.50
2022-10-02T16:37:20.429Z,7.40
2022-10-02T16:40:00.630Z,6.60
2022-10-02T16:42:52.752Z,6.30
2022-10-02T16:45:50.850Z,5.70
2022-10-02T16:48:27.943Z,4.80
2022-10-02T16:51:15.880Z,5.00
2022-10-02T16:53:53.158Z,6.50
2022-10-02T16:56:32.935Z,7.80
2022-10-02T16:59:11.490Z,10.60
2022-10-02T17:02:16.015Z,10.30
2022-10-02T17:04:51.768Z,8.80
2022-10-02T17:07:32.436Z,7.10
2022-10-02T17:10:19.174Z,7.60
2022-10-02T17:12:59.432Z,8.30
2022-10-02T17:15:35.535Z,7.70
2022-10-02T17:18:29.021Z,8.90
2022-10-02T17:21:10.449Z,9.30
2022-10-02T17:23:54.321Z,10.50
2022-10-02T17:26:33.529Z,11.60
2022-10-02T17:29:16.837Z,11.20
2022-10-02T17:31:54.374Z,11.20
2022-10-02T17:34:28.363Z,12.90
2022-10-02T17:37:08.082Z,12.90
2022-10-02T17:40:06.473Z,12.10
2022-10-02T17:42:48.855Z,11.20
2022-10-02T17:45:33.180Z,9.10
2022-10-02T17:48:36.538Z,7.50
2022-10-02T17:55:03.921Z,7.10
2022-10-02T17:58:00.123Z,7.10
2022-10-02T18:00:36.088Z,6.80
2022-10-02T18:03:37.613Z,6.90
2022-10-02T18:06:22.854Z,6.80
2022-10-02T18:09:18.509Z,5.90
2022-10-02T18:12:05.993Z,5.40
2022-10-02T18:14:55.244Z,5.80
2022-10-02T18:17:34.580Z,5.80
2022-10-02T18:20:14.314Z,5.60
2022-10-02T18:23:01.715Z,4.70
2022-10-02T18:25:43.875Z,5.20
2022-10-02T18:28:46.540Z,4.50
2022-10-02T18:31:54.170Z,5.00
2022-10-02T18:34:45.924Z,4.90
2022-10-02T18:37:34.684Z,5.30
2022-10-02T18:40:23.192Z,4.80
2022-10-02T18:43:18.678Z,5.30
2022-10-02T18:46:00.407Z,5.50
2022-10-02T18:49:04.676Z,4.30
2022-10-02T18:51:58.988Z,4.00
2022-10-02T18:54:36.076Z,4.10
2022-10-02T18:57:24.971Z,4.50
2022-10-02T19:00:06.305Z,4.30
2022-10-02T19:02:50.225Z,4.40
2022-10-02T19:05:31.175Z,4.60
2022-10-02T19:08:16.761Z,4.10
2022-10-02T19:10:48.503Z,3.80
2022-10-02T19:13:27.956Z,3.90
2022-10-02T19:16:01.443Z,4.00
2022-10-02T19:18:34.356Z,4.00
2022-10-02T19:21:09.200Z,4.00
2022-10-02T19:23:47.368Z,4.10
2022-10-02T19:26:22.903Z,4.30
2022-10-02T19:28:59.407Z,3.80
2022-10-02T19:31:32.683Z,3.90
2022-10-02T19:34:06.899Z,4.00
2022-10-02T19:36:44.953Z,3.90
2022-10-02T19:39:23.119Z,3.60
2022-10-02T19:41:59.006Z,3.40
2022-10-02T19:44:34.566Z,3.70
2022-10-02T19:47:16.331Z,2.90
2022-10-02T19:49:51.596Z,3.10
2022-10-02T19:52:43.815Z,2.90
2022-10-02T19:55:30.664Z,2.00
2022-10-02T19:58:07.925Z,2.20
2022-10-02T20:00:40.559Z,1.80
2022-10-02T20:03:18.495Z,1.80
2022-10-02T20:05:52.308Z,1.80
2022-10-02T20:08:30.093Z,1.60
2022-10-02T20:11:09.190Z,1.70
2022-10-02T20:13:46.132Z,2.20
2022-10-02T20:16:40.499Z,2.30
2022-10-02T20:19:18.232Z,2.50
2022-10-02T20:21:54.396Z,3.20
2022-10-02T20:24:33.178Z,3.30
2022-10-02T20:27:10.752Z,3.00
2022-10-02T20:29:47.178Z,4.00
2022-10-02T20:32:22.851Z,3.40
2022-10-02T20:35:00.762Z,3.00
2022-10-02T20:37:35.147Z,3.40
2022-10-02T20:40:14.194Z,3.60
2022-10-02T20:42:54.818Z,3.40
2022-10-02T20:45:37.244Z,2.90
2022-10-02T20:49:07.528Z,3.00
2022-10-02T20:52:04.862Z,3.30
2022-10-02T20:54:51.972Z,2.70
2022-10-02T20:58:01.913Z,2.50
2022-10-02T21:00:43.773Z,2.30
2022-10-02T21:03:31.138Z,2.20
2022-10-02T21:06:28.343Z,2.40
2022-10-02T21:09:22.183Z,2.00
2022-10-02T21:12:11.245Z,2.30
2022-10-02T21:15:14.641Z,1.80
2022-10-02T21:18:08.894Z,1.80
2022-10-02T21:21:02.583Z,1.70
2022-10-02T21:24:08.982Z,2.00
2022-10-02T21:27:26.176Z,1.90
2022-10-02T21:30:17.740Z,1.50
2022-10-02T21:33:14.345Z,1.60
2022-10-02T21:35:53.578Z,1.70
2022-10-02T21:39:01.038Z,1.60
2022-10-02T21:42:08.044Z,1.70
2022-10-02T21:45:15.445Z,1.80
2022-10-02T21:48:06.457Z,1.80
2022-10-02T21:51:20.416Z,2.00
2022-10-02T21:54:19.245Z,2.40
2022-10-02T21:57:37.826Z,2.20
2022-10-02T22:00:22.193Z,2.40
2022-10-02T22:03:38.908Z,2.50
2022-10-02T22:06:36.707Z,3.10
2022-10-02T22:09:27.864Z,2.50
2022-10-02T22:12:19.309Z,2.70
2022-10-02T22:15:04.436Z,2.50
2022-10-02T22:20:22.989Z,3.10
2022-10-02T22:23:09.668Z,2.50
2022-10-02T22:26:00.224Z,3.10
2022-10-02T22:28:42.124Z,2.60
2022-10-02T22:31:34.304Z,2.30
2022-10-02T22:34:20.279Z,2.60
2022-10-02T22:37:13.737Z,2.40
2022-10-02T22:39:54.406Z,2.60
2022-10-02T22:42:29.736Z,2.80
2022-10-02T22:45:06.009Z,2.60
2022-10-02T22:47:44.115Z,2.80
2022-10-02T22:50:26.047Z,2.30
2022-10-02T22:53:04.970Z,2.60
2022-10-02T22:55:39.356Z,2.70
2022-10-02T22:58:15.803Z,2.70
2022-10-02T23:01:01.179Z,2.70
2022-10-02T23:03:40.159Z,2.30
2022-10-02T23:06:21.931Z,2.20
2022-10-02T23:09:03.059Z,2.20
2022-10-02T23:11:44.392Z,2.30
2022-10-02T23:14:23.732Z,2.50
2022-10-02T23:17:03.418Z,2.40
2022-10-02T23:19:45.945Z,2.40
2022-10-02T23:22:26.202Z,2.50
2022-10-02T23:25:03.645Z,2.50
2022-10-02T23:27:49.079Z,2.30
2022-10-02T23:30:23.825Z,1.90
2022-10-02T23:35:34.923Z,2.00
2022-10-02T23:38:16.802Z,1.90
2022-10-02T23:41:25.389Z,2.40
2022-10-02T23:44:11.532Z,2.00
2022-10-02T23:47:00.940Z,2.30
2022-10-02T23:49:36.626Z,2.30
2022-10-02T23:52:38.194Z,2.10
2022-10-02T23:55:24.159Z,2.30
2022-10-02T23:58:19.378Z,2.40
